Date,TemperatureHighF,TemperatureAvgF,TemperatureLowF,DewpointHighF,DewpointAvgF,DewpointLowF,HumidityHigh,HumidityAvg,HumidityLow,PressureMaxIn,PressureMinIn,WindSpeedMaxMPH,WindSpeedAvgMPH,GustSpeedMaxMPH,PrecipitationSumIn
2014-1-1,15,13,12,12,10,9,89,88,85,30.35,30.19,13,4,13,0.07
2014-1-2,15,11,2,12,8,-3,90,86,77,30.28,30.06,24,7,24,0.00
2014-1-3,13,4,-9,5,-2,-13,85,76,65,30.45,30.16,18,3,21,0.02
2014-1-4,30,22,10,24,14,4,84,72,59,30.16,29.90,17,6,23,0.00
2014-1-5,30,26,18,28,24,16,95,92,85,30.02,29.56,19,3,20,0.17
2014-1-6,18,0,-14,16,-4,-20,91,81,74,30.12,29.60,29,10,29,0.01
2014-1-7,0,-6,-14,-6,-12,-19,82,76,70,30.37,30.11,19,5,20,0.00
2014-1-8,19,4,-10,10,0,-15,90,80,68,30.52,30.36,8,1,8,0.07
2014-1-9,21,9,-7,20,6,-11,93,86,80,30.59,30.29,12,2,12,0.01
2014-1-10,38,32,21,37,30,20,97,95,93,30.28,29.62,15,4,15,0.17
2014-1-11,42,38,33,41,36,29,97,94,84,29.62,29.29,24,7,24,0.16
2014-1-12,37,34,32,32,30,27,92,85,78,29.92,29.62,22,7,22,0.00
2014-1-13,44,40,36,38,34,32,89,80,73,29.72,29.52,18,5,18,0.00
2014-1-14,36,32,25,32,28,21,92,82,69,29.76,29.63,26,5,27,0.00
2014-1-15,28,24,19,22,19,13,89,80,69,29.99,29.70,29,6,29,0.00
2014-1-16,28,22,18,25,19,12,92,86,76,29.94,29.61,21,7,21,0.03
2014-1-17,30,24,13,26,20,8,93,83,75,29.92,29.60,17,5,17,0.01
2014-1-18,18,13,6,13,10,3,90,85,78,29.93,29.80,10,2,10,0.00
2014-1-19,29,23,16,25,18,13,91,83,72,29.80,29.51,26,5,28,0.00
2014-1-20,32,25,12,28,20,8,90,83,72,30.02,29.49,16,4,16,0.00
2014-1-21,12,4,-9,8,-4,-14,86,68,53,30.21,30.01,18,5,19,0.00
2014-1-22,10,2,-12,7,-2,-17,87,81,66,30.21,29.95,15,3,15,0.00
2014-1-23,14,8,4,6,3,-1,87,81,68,30.47,29.96,12,4,14,0.01
2014-1-24,18,6,-2,14,1,-8,88,79,66,30.46,29.56,20,6,24,0.00
2014-1-25,27,17,6,24,13,3,93,83,64,29.77,29.31,25,6,25,0.03
2014-1-26,28,14,3,25,10,0,93,85,80,29.78,29.37,30,4,30,0.03
2014-1-27,24,7,-6,22,3,-9,92,84,73,30.31,29.43,21,7,25,0.00
2014-1-28,7,-3,-10,0,-9,-14,85,74,54,30.39,30.22,17,3,17,0.00
2014-1-29,16,7,-5,5,-1,-10,80,70,52,30.22,30.13,26,6,26,0.00
2014-1-30,27,18,9,23,10,2,90,73,61,30.17,29.78,28,7,28,0.01
2014-1-31,31,29,26,25,23,20,88,80,77,30.11,29.84,11,2,11,0.00
2014-2-1,36,29,24,35,28,22,96,94,86,30.10,29.77,11,2,11,0.19
2014-2-2,24,22,13,22,18,10,93,86,77,30.25,29.94,14,3,14,0.05
2014-2-3,26,13,0,14,7,-4,90,79,57,30.39,30.23,8,1,8,0.00
2014-2-4,23,13,0,17,8,-4,90,81,72,30.45,30.11,18,2,18,0.00
2014-2-5,25,18,5,22,15,1,92,87,75,30.35,29.87,22,6,24,0.00
2014-2-6,19,10,3,14,6,-2,89,82,68,30.36,30.26,18,4,18,0.00
2014-2-7,12,5,-1,3,-2,-5,84,75,60,30.35,30.29,20,4,20,0.00
2014-2-8,19,11,2,11,6,-3,89,79,65,30.34,30.16,10,2,10,0.00
2014-2-9,23,16,12,16,12,9,90,84,68,30.17,30.02,16,3,16,0.01
2014-2-10,20,14,8,14,9,5,90,81,69,30.37,30.17,15,4,15,0.00
2014-2-11,19,9,-5,5,1,-9,84,70,50,30.50,30.37,12,2,12,0.00
2014-2-12,21,6,-12,10,0,-17,90,75,62,30.46,30.09,12,1,12,0.00
2014-2-13,30,19,6,16,11,2,88,71,50,30.09,29.50,12,3,12,0.00
2014-2-14,28,24,20,25,19,16,92,82,70,29.77,29.43,19,5,20,0.00
2014-2-15,22,14,6,18,7,1,88,74,59,30.05,29.77,13,3,14,0.00
2014-2-16,25,16,4,18,11,0,91,82,70,30.35,29.93,13,2,13,0.02
2014-2-17,22,13,5,20,9,2,92,85,75,30.37,29.63,22,5,23,0.07
2014-2-18,40,30,22,31,25,19,93,82,71,30.00,29.63,17,7,25,0.00
2014-2-19,45,37,27,34,30,24,92,77,58,30.01,29.56,17,4,18,0.00
2014-2-20,45,33,28,44,31,25,97,94,84,30.02,29.36,22,5,22,0.25
2014-2-21,46,35,31,45,27,18,97,73,58,29.74,29.36,34,11,34,0.10
2014-2-22,37,33,28,31,20,10,89,59,44,29.96,29.72,23,7,24,0.00
2014-2-23,32,25,19,20,15,12,78,67,52,30.06,29.94,18,6,21,0.00
2014-2-24,24,20,18,14,12,10,80,71,64,30.16,30.04,23,8,24,0.00
2014-2-25,23,17,10,15,11,7,88,77,66,30.15,30.00,25,5,25,0.00
2014-2-26,15,10,4,9,3,-1,86,71,57,30.11,29.64,21,6,21,0.00
2014-2-27,15,8,-4,11,-1,-10,88,66,42,30.21,29.53,28,6,30,0.00
2014-2-28,18,6,-12,12,-3,-17,85,68,54,30.34,30.10,17,4,18,0.00
2014-3-1,30,22,16,23,17,12,90,80,62,30.25,30.06,11,2,11,0.11
2014-3-2,18,13,3,15,8,-2,90,81,70,30.35,30.21,13,3,13,0.06
2014-3-3,17,4,-4,1,-4,-10,82,68,48,30.49,30.33,11,2,11,0.00
2014-3-4,20,10,-4,9,0,-10,80,65,38,30.42,30.21,6,0,9,0.00
2014-3-5,25,19,13,15,11,6,84,70,60,30.49,30.25,13,4,15,0.00
2014-3-6,27,17,11,15,10,7,86,73,57,30.48,30.15,12,5,19,0.00
2014-3-7,47,28,6,30,19,3,88,70,43,30.15,29.90,10,1,10,0.00
2014-3-8,40,32,26,33,28,20,92,83,71,30.14,29.90,12,3,12,0.07
2014-3-9,35,28,16,29,21,13,91,76,59,30.21,29.82,16,4,16,0.00
2014-3-10,51,43,34,39,35,29,84,73,58,29.82,29.54,17,5,17,0.00
2014-3-11,52,44,38,39,37,34,91,78,53,29.70,29.58,11,2,11,0.04
2014-3-12,38,25,7,36,22,4,95,89,79,30.00,29.52,18,7,24,0.15
2014-3-13,24,13,0,14,6,-4,86,74,51,30.17,29.97,15,3,15,0.03
2014-3-14,51,38,18,38,29,12,86,71,56,29.97,29.54,30,7,30,0.00
2014-3-15,39,36,28,32,27,16,83,70,53,30.22,29.69,19,6,19,0.00
2014-3-16,28,19,12,17,8,1,76,63,46,30.36,30.18,19,7,19,0.00
2014-3-17,31,18,6,20,9,2,82,68,45,30.17,29.91,17,4,17,0.00
2014-3-18,43,31,20,34,25,16,90,79,68,30.00,29.82,15,4,15,0.00
2014-3-19,46,39,33,44,36,29,95,90,83,29.84,29.56,27,6,27,0.14
2014-3-20,38,34,28,34,27,22,94,74,61,30.03,29.79,23,8,25,0.00
2014-3-21,40,32,22,32,26,19,91,79,63,30.05,29.67,16,4,16,0.00
2014-3-22,40,35,28,37,30,20,95,80,62,30.19,29.65,24,5,24,0.10
2014-3-23,28,22,16,21,12,7,77,65,52,30.34,30.18,17,5,17,0.00
2014-3-24,31,22,12,16,12,8,88,67,46,30.34,30.08,22,4,22,0.00
2014-3-25,30,23,18,22,15,10,86,69,50,30.16,29.91,26,6,26,0.00
2014-3-26,32,22,12,20,12,8,86,67,47,30.34,30.16,14,3,15,0.00
2014-3-27,44,35,28,40,28,19,90,76,64,30.17,29.61,23,6,23,0.04
2014-3-28,49,43,37,45,38,32,90,83,77,30.14,29.53,25,7,25,0.01
2014-3-29,37,35,30,32,30,25,85,81,73,30.14,30.02,19,5,19,0.00
2014-3-30,49,36,25,27,24,21,89,64,39,30.19,30.08,14,4,15,0.00
2014-3-31,60,43,26,39,30,23,88,63,40,30.16,29.92,18,4,18,0.00
2014-4-1,57,47,38,45,35,29,83,65,50,29.98,29.68,32,8,32,0.02
2014-4-2,55,43,32,34,29,26,79,59,35,30.12,29.98,15,3,15,0.00
2014-4-3,45,36,32,34,29,19,94,77,51,30.12,29.77,24,7,26,0.60
2014-4-4,48,38,34,46,36,32,97,93,83,29.77,29.41,29,7,30,0.10
2014-4-5,48,37,29,32,27,24,93,68,40,30.15,29.73,27,7,27,0.00
2014-4-6,53,39,21,33,26,19,95,64,31,30.19,29.99,13,2,14,0.00
2014-4-7,54,42,31,40,31,24,95,69,37,29.99,29.45,17,3,18,0.34
2014-4-8,60,48,38,39,36,32,95,67,38,29.77,29.45,16,5,17,0.04
2014-4-9,56,46,33,37,31,25,82,57,35,29.96,29.77,19,4,19,0.00
2014-4-10,68,55,44,48,42,37,76,61,42,29.88,29.61,28,7,28,0.00
2014-4-11,66,50,34,42,33,25,96,59,23,30.03,29.83,22,2,22,0.00
2014-4-12,70,58,38,55,44,32,88,63,29,30.03,29.70,27,4,27,0.00
2014-4-13,75,65,50,60,54,46,87,70,55,29.78,29.34,24,6,25,0.00
2014-4-14,69,54,30,56,45,21,94,74,54,29.86,29.33,22,8,33,0.03
2014-4-15,34,28,24,29,19,13,94,72,46,30.38,29.73,23,6,23,0.01
2014-4-16,43,31,18,28,21,14,91,67,41,30.43,30.23,17,4,17,0.02
2014-4-17,66,48,30,40,32,24,88,58,28,30.33,30.17,21,4,21,0.00
2014-4-18,64,53,41,47,40,28,90,62,37,30.36,30.16,17,3,18,0.00
2014-4-19,56,44,32,40,32,26,85,64,31,30.40,30.25,16,4,16,0.00
2014-4-20,72,54,36,42,34,30,82,52,22,30.30,29.97,14,2,15,0.00
2014-4-21,76,60,40,56,45,36,92,62,31,30.05,29.60,25,3,26,0.00
2014-4-22,59,51,39,56,40,30,92,66,54,29.89,29.60,24,8,26,0.01
2014-4-23,55,44,35,33,27,19,80,56,25,30.08,29.89,13,5,17,0.00
2014-4-24,53,46,41,34,26,19,70,47,29,30.12,29.80,20,6,21,0.00
2014-4-25,58,47,41,46,37,27,93,70,50,29.81,29.62,16,4,23,0.33
2014-4-26,57,49,41,42,37,34,87,66,45,30.03,29.73,25,5,26,0.00
2014-4-27,54,44,34,38,33,30,85,65,46,30.12,30.01,23,7,23,0.00
2014-4-28,52,48,44,42,37,33,78,66,55,30.01,29.72,33,10,35,0.04
2014-4-29,75,58,46,58,49,40,97,75,36,29.74,29.49,24,6,26,0.74
2014-4-30,67,58,52,55,51,46,92,80,57,29.74,29.64,17,5,18,0.06
2014-5-1,51,47,41,46,40,37,92,77,61,29.73,29.68,24,6,25,0.08
2014-5-2,53,48,44,47,44,42,93,85,71,29.76,29.68,17,6,19,0.02
2014-5-3,60,51,45,47,42,35,93,74,43,29.79,29.59,29,7,29,0.02
2014-5-4,57,51,39,42,36,29,84,58,38,30.03,29.77,28,4,28,0.00
2014-5-5,52,45,36,43,37,32,90,75,55,30.04,29.93,14,2,14,0.00
2014-5-6,62,48,32,42,37,30,96,69,40,30.05,29.95,16,4,16,0.00
2014-5-7,67,53,44,54,45,36,90,75,62,30.06,29.88,19,7,21,0.40
2014-5-8,86,69,51,67,57,44,87,67,49,29.93,29.80,19,4,19,0.00
2014-5-9,75,69,64,62,59,56,84,72,60,29.82,29.62,26,5,28,0.15
2014-5-10,71,60,49,57,46,40,81,60,35,29.92,29.72,21,5,22,0.00
2014-5-11,80,62,42,60,50,41,96,67,41,30.02,29.87,15,3,18,0.00
2014-5-12,81,67,57,73,64,55,97,89,74,29.94,29.83,22,4,22,0.45
2014-5-13,84,71,60,71,66,56,97,85,61,29.98,29.79,37,5,37,0.52
2014-5-14,60,56,49,56,52,47,94,87,75,30.06,29.87,18,3,21,0.34
2014-5-15,55,49,42,55,46,36,97,91,79,29.96,29.63,18,5,20,0.45
2014-5-16,54,44,34,39,36,32,94,74,51,29.99,29.93,15,3,15,0.00
2014-5-17,54,47,41,41,38,34,89,72,49,30.15,29.98,16,3,18,0.00
2014-5-18,66,54,39,41,38,34,93,59,34,30.23,30.15,15,2,15,0.00
2014-5-19,69,58,41,48,41,37,93,56,35,30.25,30.06,16,3,16,0.00
2014-5-20,78,65,52,65,55,44,88,70,59,30.15,29.79,23,4,23,0.08
2014-5-21,82,72,60,69,62,49,96,75,36,29.81,29.71,20,3,20,0.28
2014-5-22,70,63,55,55,52,46,88,68,49,30.00,29.76,18,4,18,0.00
2014-5-23,69,58,48,53,48,42,92,70,53,30.10,29.99,15,2,15,0.00
2014-5-24,76,62,47,56,51,46,96,70,40,30.16,30.06,8,0,8,0.00
2014-5-25,80,66,49,57,52,47,97,66,36,30.11,29.98,14,1,14,0.00
2014-5-26,85,70,52,66,58,50,96,68,42,30.01,29.85,14,2,15,0.00
2014-5-27,83,72,66,70,66,62,93,81,62,29.90,29.77,28,3,28,0.13
2014-5-28,68,65,62,66,62,57,97,90,73,30.01,29.81,11,2,12,0.00
2014-5-29,76,65,53,60,56,50,93,74,52,30.08,30.00,16,2,16,0.00
2014-5-30,82,66,48,59,54,47,97,70,42,30.15,30.06,11,1,11,0.00
2014-5-31,81,67,52,61,55,47,96,67,46,30.18,30.08,17,3,17,0.00
2014-6-1,86,68,47,61,53,44,93,63,34,30.13,29.91,15,2,15,0.00
2014-6-2,82,73,63,71,66,58,94,81,63,29.93,29.75,25,4,25,0.42
2014-6-3,77,71,58,68,60,52,94,70,45,29.86,29.74,27,6,29,0.18
2014-6-4,64,58,52,60,56,50,96,91,78,29.86,29.75,9,1,9,0.23
2014-6-5,74,62,48,56,51,47,97,71,41,29.91,29.78,14,2,16,0.01
2014-6-6,79,64,45,59,51,44,96,66,35,29.96,29.89,9,1,9,0.00
2014-6-7,82,67,48,61,53,47,97,65,33,29.99,29.81,17,2,18,0.00
2014-6-8,77,67,60,62,57,51,94,71,42,29.92,29.72,14,2,14,0.18
2014-6-9,80,66,52,61,56,51,96,72,40,29.96,29.85,12,1,13,0.00
2014-6-10,74,65,53,63,58,52,96,78,62,29.88,29.79,16,2,16,0.00
2014-6-11,73,67,62,69,64,58,97,91,74,29.79,29.62,11,2,11,1.16
2014-6-12,76,70,65,68,65,64,97,86,69,29.70,29.62,13,2,13,0.10
2014-6-13,70,61,48,64,52,45,93,73,60,29.97,29.68,22,5,22,0.00
2014-6-14,76,60,43,56,48,41,97,70,36,30.10,29.97,11,0,11,0.00
2014-6-15,82,68,52,63,56,50,93,69,42,30.06,29.86,21,3,21,0.00
2014-6-16,86,76,65,69,64,59,92,69,44,29.98,29.90,14,2,15,0.00
2014-6-17,88,77,64,74,69,61,95,76,55,29.92,29.73,23,4,23,0.00
2014-6-18,83,71,66,74,67,64,96,88,71,29.99,29.81,24,2,24,0.57
2014-6-19,76,69,65,68,66,63,97,90,77,30.06,29.90,11,2,11,0.59
2014-6-20,65,61,57,63,57,54,95,87,77,30.04,29.90,14,2,14,0.09
2014-6-21,80,67,57,64,59,56,96,76,54,29.94,29.82,8,1,8,0.01
2014-6-22,79,69,59,66,60,56,93,74,60,29.90,29.81,11,2,11,0.01
2014-6-23,78,68,58,72,65,56,96,88,78,29.88,29.78,13,1,14,0.14
2014-6-24,77,71,67,72,68,66,96,93,81,29.83,29.78,14,2,14,0.38
2014-6-25,78,69,62,71,66,61,98,89,73,29.92,29.79,9,2,12,0.00
2014-6-26,80,68,58,66,62,57,97,84,58,30.00,29.92,7,1,7,0.01
2014-6-27,82,71,58,68,63,57,96,77,59,30.05,29.98,11,1,11,0.00
2014-6-28,83,72,62,74,68,60,97,88,67,30.05,29.95,16,1,17,0.13
2014-6-29,85,77,70,74,70,68,96,83,60,29.98,29.85,15,3,17,0.01
2014-6-30,84,77,72,75,72,69,91,84,69,29.88,29.66,17,4,17,0.00
2014-7-1,82,74,64,73,66,63,96,79,55,29.69,29.47,20,4,21,0.69
2014-7-2,74,70,63,66,62,57,91,76,60,29.88,29.68,17,3,18,0.00
2014-7-3,71,62,55,58,54,48,94,77,45,30.08,29.85,19,2,23,0.02
2014-7-4,74,62,49,60,52,47,97,73,44,30.24,30.08,14,1,15,0.00
2014-7-5,76,64,48,61,54,47,97,73,45,30.24,30.02,11,1,13,0.00
2014-7-6,79,69,56,69,62,54,95,80,64,30.02,29.67,16,3,17,0.00
2014-7-7,83,76,65,75,69,62,96,82,63,29.68,29.59,19,4,20,0.56
2014-7-8,76,70,64,70,65,61,97,85,64,29.70,29.50,28,5,28,0.69
2014-7-9,74,67,58,63,60,56,94,79,59,29.96,29.70,14,3,14,0.00
2014-7-10,76,65,53,61,57,52,97,77,51,30.11,29.96,10,1,10,0.00
2014-7-11,80,67,52,65,59,51,97,77,52,30.17,30.06,10,1,10,0.00
2014-7-12,83,73,60,72,65,58,96,77,61,30.10,29.83,13,2,13,0.00
2014-7-13,81,74,64,71,67,60,95,80,53,29.83,29.72,17,4,18,0.22
2014-7-14,79,68,62,69,63,58,97,84,52,29.81,29.67,15,1,15,0.32
2014-7-15,67,62,56,61,56,52,96,82,65,29.83,29.65,30,5,30,0.05
2014-7-16,68,58,51,57,53,49,94,84,62,29.96,29.83,14,2,14,0.14
2014-7-17,74,63,52,58,54,49,96,76,44,30.08,29.96,10,1,10,0.00
2014-7-18,75,63,49,62,55,48,97,78,51,30.17,30.08,10,0,10,0.00
2014-7-19,75,65,57,65,60,55,95,86,65,30.08,29.95,11,1,11,0.01
2014-7-20,81,68,54,68,61,53,98,81,54,30.02,29.96,7,0,7,0.00
2014-7-21,85,72,56,71,62,55,97,74,48,30.07,29.99,8,0,10,0.00
2014-7-22,88,75,59,72,66,57,96,75,55,30.03,29.85,14,2,14,0.00
2014-7-23,80,70,64,71,63,57,88,77,64,30.00,29.78,15,3,15,0.00
2014-7-24,73,63,52,59,54,50,94,73,48,30.06,29.97,12,2,13,0.00
2014-7-25,77,63,49,61,56,48,97,78,50,30.03,29.89,11,2,11,0.02
2014-7-26,80,69,56,69,63,55,97,83,58,29.91,29.71,10,2,12,0.01
2014-7-27,83,71,60,71,66,58,97,86,62,29.73,29.50,26,2,29,1.99
2014-7-28,68,62,52,60,57,48,96,83,66,29.95,29.66,15,3,15,0.03
2014-7-29,70,59,47,62,54,46,97,85,65,29.96,29.89,15,2,15,0.17
2014-7-30,74,63,55,63,58,54,96,85,60,29.95,29.89,11,1,12,0.04
2014-7-31,78,66,51,64,58,49,96,78,59,29.99,29.93,13,2,14,0.01
2014-8-1,81,69,58,68,62,56,97,81,55,30.03,29.97,10,0,11,0.00
2014-8-2,79,68,59,67,62,57,96,83,56,30.07,30.00,6,0,6,0.00
2014-8-3,82,69,58,68,62,57,97,81,51,30.06,29.98,10,0,10,0.00
2014-8-4,81,67,56,70,63,55,97,88,58,30.03,29.97,15,1,15,0.20
2014-8-5,77,68,62,68,64,61,97,89,70,30.00,29.92,9,1,10,0.00
2014-8-6,76,66,57,64,60,56,97,82,55,30.01,29.92,11,1,11,0.01
2014-8-7,81,66,51,65,58,50,98,78,44,30.07,29.98,8,1,9,0.01
2014-8-8,77,66,54,68,61,53,97,85,63,30.08,30.01,11,1,13,0.00
2014-8-9,79,65,51,65,59,50,97,81,53,30.07,30.00,13,2,13,0.00
2014-8-10,83,69,54,70,62,53,98,82,56,30.03,29.91,11,2,11,0.01
2014-8-11,70,67,63,68,65,61,96,95,91,29.93,29.65,11,1,11,0.45
2014-8-12,74,65,59,67,62,57,98,91,76,29.81,29.61,19,4,19,0.03
2014-8-13,75,64,54,62,56,51,94,77,54,29.92,29.81,19,4,19,0.01
2014-8-14,69,59,50,55,50,47,94,74,50,30.00,29.91,18,2,18,0.00
2014-8-15,73,59,44,58,50,43,95,76,50,30.01,29.90,14,2,15,0.00
2014-8-16,79,67,49,68,59,47,96,77,55,29.92,29.80,18,2,20,0.00
2014-8-17,72,68,63,66,64,61,96,89,80,29.92,29.84,11,1,12,0.10
2014-8-18,78,69,61,67,63,59,93,83,65,29.90,29.75,13,2,13,0.04
2014-8-19,82,69,62,72,65,60,97,88,68,29.77,29.66,37,2,42,0.87
2014-8-20,80,71,64,70,66,63,97,86,65,29.89,29.68,16,2,17,0.02
2014-8-21,81,70,62,73,68,61,98,92,75,29.93,29.86,9,0,9,0.02
2014-8-22,81,74,66,74,71,65,98,91,75,29.93,29.84,9,1,9,0.00
2014-8-23,82,72,66,71,67,64,96,84,64,29.99,29.91,12,1,12,0.00
2014-8-24,79,70,61,70,66,60,97,88,71,30.02,29.96,13,2,13,0.01
2014-8-25,85,75,66,76,70,64,97,86,67,30.02,29.93,12,2,12,0.00
2014-8-26,86,74,68,74,70,66,97,88,65,30.02,29.93,21,2,21,0.06
2014-8-27,78,68,59,68,64,58,97,87,64,30.05,29.99,10,1,10,0.01
2014-8-28,74,65,58,62,58,56,97,81,56,30.09,30.02,9,1,9,0.00
2014-8-29,78,66,57,67,60,53,95,82,67,30.07,29.92,13,2,13,0.00
2014-8-30,84,74,67,72,68,64,92,81,62,29.94,29.77,20,4,21,0.36
2014-8-31,83,73,67,72,69,66,97,86,64,29.89,29.83,13,2,17,0.26
2014-9-1,84,73,68,74,70,66,97,89,69,29.85,29.65,22,2,22,0.05
2014-9-2,78,72,60,69,66,58,95,82,60,29.88,29.76,15,3,15,0.01
2014-9-3,83,70,55,68,62,55,98,77,47,29.98,29.88,11,1,14,0.00
2014-9-4,85,72,61,73,67,59,95,83,61,29.98,29.88,14,2,17,0.00
2014-9-5,92,79,68,77,71,66,94,78,55,29.97,29.76,37,3,47,0.25
2014-9-6,72,65,54,67,59,52,95,82,58,30.08,29.86,13,2,13,0.06
2014-9-7,74,62,48,60,54,47,97,77,50,30.17,30.08,7,0,8,0.00
2014-9-8,75,61,46,61,54,45,97,81,55,30.14,29.99,11,2,15,0.00
2014-9-9,77,64,53,66,58,52,98,82,53,30.00,29.90,10,1,11,0.00
2014-9-10,74,68,64,72,65,59,97,89,82,29.92,29.51,18,3,20,0.94
2014-9-11,73,55,50,69,51,47,92,86,81,30.16,29.56,22,5,27,0.00
2014-9-12,58,54,49,52,50,47,95,87,74,30.24,30.11,11,2,12,0.00
2014-9-13,57,51,40,52,47,39,95,85,63,30.29,30.06,17,3,17,0.12
2014-9-14,63,50,38,50,44,37,97,82,55,30.31,30.16,10,1,13,0.00
2014-9-15,61,51,42,54,48,40,97,90,73,30.17,30.01,11,0,13,0.03
2014-9-16,65,55,46,51,49,44,96,82,50,30.13,30.02,10,1,12,0.01
2014-9-17,66,51,36,53,44,35,97,80,46,30.04,29.93,10,1,11,0.00
2014-9-18,67,54,41,56,49,40,97,84,63,30.16,29.98,9,1,9,0.01
2014-9-19,68,55,40,54,49,39,97,82,55,30.22,29.99,9,1,11,0.00
2014-9-20,77,64,52,67,58,49,95,83,65,29.99,29.71,15,3,19,0.83
2014-9-21,68,60,49,66,56,43,95,87,70,29.97,29.53,23,6,25,0.16